createdAt,value
2023-05-15T00:01:35.195Z,11.83
2023-05-15T00:04:02.228Z,11.96
2023-05-15T00:06:28.875Z,11.97
2023-05-15T00:08:55.627Z,12.00
2023-05-15T00:11:23.719Z,11.67
2023-05-15T00:13:50.462Z,11.94
2023-05-15T00:16:17.171Z,11.96
2023-05-15T00:18:43.833Z,11.78
2023-05-15T00:21:10.556Z,11.70
2023-05-15T00:23:37.341Z,11.87
2023-05-15T00:26:04.344Z,11.57
2023-05-15T00:28:32.297Z,11.80
2023-05-15T00:30:58.965Z,10.92
2023-05-15T00:33:25.677Z,11.51
2023-05-15T00:35:52.258Z,11.77
2023-05-15T00:38:18.846Z,11.59
2023-05-15T00:40:46.246Z,11.34
2023-05-15T00:43:15.026Z,11.74
2023-05-15T00:45:44.019Z,11.67
2023-05-15T00:48:11.106Z,11.52
2023-05-15T00:50:41.434Z,11.07
2023-05-15T00:53:08.471Z,11.64
2023-05-15T00:55:35.927Z,11.73
2023-05-15T00:58:03.171Z,11.79
2023-05-15T01:00:32.764Z,11.80
2023-05-15T01:03:01.939Z,11.39
2023-05-15T01:05:29.142Z,11.72
2023-05-15T01:08:04.732Z,11.41
2023-05-15T01:10:32.903Z,11.50
2023-05-15T01:13:01.353Z,11.71
2023-05-15T01:15:28.083Z,11.73
2023-05-15T01:17:54.649Z,11.82
2023-05-15T01:20:23.398Z,11.48
2023-05-15T01:23:05.926Z,11.73
2023-05-15T01:26:04.822Z,11.67
2023-05-15T01:28:38.156Z,11.77
2023-05-15T01:31:14.192Z,11.66
2023-05-15T01:33:45.738Z,11.75
2023-05-15T01:36:16.683Z,11.81
2023-05-15T01:38:47.266Z,11.80
2023-05-15T01:41:28.379Z,11.83
2023-05-15T01:44:02.698Z,10.83
2023-05-15T01:46:31.660Z,11.13
2023-05-15T01:49:01.622Z,11.39
2023-05-15T01:51:30.860Z,11.56
2023-05-15T01:53:59.386Z,10.92
2023-05-15T01:56:27.175Z,11.49
2023-05-15T01:58:55.130Z,10.55
2023-05-15T02:01:24.021Z,11.42
2023-05-15T02:03:51.758Z,11.48
2023-05-15T02:06:18.952Z,10.08
2023-05-15T02:08:48.087Z,9.66
2023-05-15T02:11:15.212Z,9.66
2023-05-15T02:13:42.838Z,9.56
2023-05-15T02:16:09.433Z,10.09
2023-05-15T02:18:38.171Z,10.98
2023-05-15T02:21:04.845Z,11.43
2023-05-15T02:23:31.412Z,11.47
2023-05-15T02:26:12.096Z,11.53
2023-05-15T02:28:46.861Z,11.55
2023-05-15T02:31:21.239Z,11.56
2023-05-15T02:33:55.765Z,11.58
2023-05-15T02:36:30.739Z,11.59
2023-05-15T02:38:59.028Z,11.17
2023-05-15T02:41:26.466Z,11.50
2023-05-15T02:43:55.519Z,11.55
2023-05-15T02:46:25.156Z,11.57
2023-05-15T02:48:54.754Z,11.59
2023-05-15T02:51:22.041Z,10.80
2023-05-15T02:53:49.151Z,11.47
2023-05-15T02:56:15.731Z,11.21
2023-05-15T02:58:42.548Z,11.49
2023-05-15T03:01:09.193Z,11.56
2023-05-15T03:03:35.946Z,10.99
2023-05-15T03:06:04.162Z,11.48
2023-05-15T03:08:30.903Z,11.17
2023-05-15T03:10:58.163Z,11.13
2023-05-15T03:13:24.909Z,11.48
2023-05-15T03:15:52.687Z,11.56
2023-05-15T03:18:19.640Z,11.59
2023-05-15T03:20:47.600Z,11.57
2023-05-15T03:23:15.603Z,11.61
2023-05-15T03:25:42.206Z,11.60
2023-05-15T03:28:08.887Z,11.63
2023-05-15T03:30:35.507Z,11.60
2023-05-15T03:33:03.968Z,11.60
2023-05-15T03:35:32.340Z,11.56
2023-05-15T03:37:59.100Z,11.57
2023-05-15T03:40:27.054Z,11.57
2023-05-15T03:42:53.780Z,11.59
2023-05-15T03:45:21.154Z,11.61
2023-05-15T03:47:48.451Z,11.59
2023-05-15T03:50:15.436Z,11.65
2023-05-15T03:52:42.399Z,11.61
2023-05-15T03:55:09.478Z,11.63
2023-05-15T03:57:37.794Z,11.60
2023-05-15T04:00:10.005Z,11.57
2023-05-15T04:02:37.036Z,11.56
2023-05-15T04:05:04.122Z,11.57
2023-05-15T04:07:31.441Z,11.60
2023-05-15T04:10:01.384Z,11.62
2023-05-15T04:12:29.590Z,11.64
2023-05-15T04:14:59.976Z,11.67
2023-05-15T04:17:26.562Z,11.66
2023-05-15T04:19:53.139Z,11.67
2023-05-15T04:22:19.680Z,11.61
2023-05-15T04:24:46.234Z,11.58
2023-05-15T04:27:13.012Z,11.55
2023-05-15T04:29:39.618Z,11.56
2023-05-15T04:32:07.949Z,11.59
2023-05-15T04:34:35.131Z,11.57
2023-05-15T04:37:01.761Z,11.58
2023-05-15T04:39:28.320Z,11.61
2023-05-15T04:41:54.871Z,11.50
2023-05-15T04:44:21.541Z,11.59
2023-05-15T04:46:48.170Z,10.61
2023-05-15T04:49:16.403Z,11.26
2023-05-15T04:51:43.322Z,11.25
2023-05-15T04:54:09.955Z,10.99
2023-05-15T04:56:36.535Z,11.00
2023-05-15T04:59:03.217Z,11.38
2023-05-15T05:01:29.813Z,11.45
2023-05-15T05:03:56.526Z,11.49
2023-05-15T05:06:24.540Z,11.48
2023-05-15T05:08:51.131Z,11.23
2023-05-15T05:11:17.709Z,11.31
2023-05-15T05:13:44.302Z,11.44
2023-05-15T05:16:11.064Z,11.48
2023-05-15T05:18:37.785Z,11.05
2023-05-15T05:21:04.710Z,11.38
2023-05-15T05:23:32.899Z,11.46
2023-05-15T05:26:00.159Z,11.48
2023-05-15T05:28:26.905Z,11.48
2023-05-15T05:30:53.492Z,11.49
2023-05-15T05:33:20.219Z,11.40
2023-05-15T05:35:46.856Z,10.84
2023-05-15T05:38:13.690Z,10.43
2023-05-15T05:40:41.658Z,10.92
2023-05-15T05:43:08.339Z,10.86
2023-05-15T05:45:35.013Z,10.85
2023-05-15T05:48:01.671Z,11.01
2023-05-15T05:50:28.438Z,11.10
2023-05-15T05:52:55.072Z,11.32
2023-05-15T05:55:21.646Z,11.41
2023-05-15T05:57:49.621Z,11.31
2023-05-15T06:00:17.242Z,11.38
2023-05-15T06:02:44.082Z,11.43
2023-05-15T06:05:10.989Z,11.44
2023-05-15T06:07:37.583Z,11.42
2023-05-15T06:10:04.693Z,11.42
2023-05-15T06:12:31.477Z,11.41
2023-05-15T06:14:59.364Z,11.42
2023-05-15T06:17:26.097Z,11.43
2023-05-15T06:19:52.667Z,11.42
2023-05-15T06:22:20.211Z,11.42
2023-05-15T06:24:46.776Z,11.48
2023-05-15T06:27:13.346Z,11.41
2023-05-15T06:29:39.945Z,11.39
2023-05-15T06:32:08.117Z,11.42
2023-05-15T06:34:34.759Z,11.41
2023-05-15T06:37:01.967Z,11.47
2023-05-15T06:39:28.524Z,11.42
2023-05-15T06:41:59.063Z,11.42
2023-05-15T06:44:25.832Z,11.42
2023-05-15T06:46:52.540Z,11.46
2023-05-15T06:49:20.538Z,11.44
2023-05-15T06:51:47.121Z,11.46
2023-05-15T06:54:14.314Z,11.43
2023-05-15T06:56:40.926Z,11.43
2023-05-15T06:59:07.550Z,11.44
2023-05-15T07:01:34.189Z,11.42
2023-05-15T07:04:00.988Z,11.44
2023-05-15T07:06:29.316Z,11.44
2023-05-15T07:08:55.906Z,11.44
2023-05-15T07:11:22.748Z,11.42
2023-05-15T07:13:50.219Z,11.44
2023-05-15T07:16:17.306Z,11.44
2023-05-15T07:18:43.919Z,11.01
2023-05-15T07:21:10.536Z,11.33
2023-05-15T07:23:38.913Z,11.44
2023-05-15T07:26:05.929Z,11.44
2023-05-15T07:28:33.894Z,10.72
2023-05-15T07:31:02.762Z,10.58
2023-05-15T07:33:29.589Z,11.18
2023-05-15T07:35:56.149Z,11.31
2023-05-15T07:38:22.792Z,10.79
2023-05-15T07:40:50.856Z,10.62
2023-05-15T07:43:17.417Z,10.67
2023-05-15T07:45:44.034Z,10.72
2023-05-15T07:48:15.082Z,10.85
2023-05-15T07:50:41.825Z,10.87
2023-05-15T07:53:08.752Z,10.77
2023-05-15T07:55:35.297Z,11.23
2023-05-15T07:58:03.281Z,11.24
2023-05-15T08:00:29.880Z,11.08
2023-05-15T08:02:56.507Z,11.29
2023-05-15T08:05:23.221Z,11.48
2023-05-15T08:07:49.915Z,11.02
2023-05-15T08:10:16.572Z,11.37
2023-05-15T08:12:47.119Z,11.48
2023-05-15T08:15:15.191Z,11.54
2023-05-15T08:17:42.047Z,11.43
2023-05-15T08:20:09.780Z,11.71
2023-05-15T08:22:36.585Z,11.52
2023-05-15T08:25:03.920Z,12.07
2023-05-15T08:27:30.684Z,14.03
2023-05-15T08:29:57.637Z,12.68
2023-05-15T08:32:25.966Z,12.45
2023-05-15T08:34:52.603Z,12.30
2023-05-15T08:37:19.171Z,11.83
2023-05-15T08:39:45.759Z,11.77
2023-05-15T08:42:20.813Z,11.91
2023-05-15T08:44:48.100Z,11.99
2023-05-15T08:47:15.998Z,12.02
2023-05-15T08:49:52.086Z,11.62
2023-05-15T08:52:19.040Z,11.53
2023-05-15T08:54:48.468Z,11.00
2023-05-15T08:57:15.520Z,10.94
2023-05-15T08:59:42.285Z,10.94
2023-05-15T09:02:09.344Z,11.43
2023-05-15T09:04:36.111Z,11.53
2023-05-15T09:07:05.857Z,11.54
2023-05-15T09:09:34.305Z,11.45
2023-05-15T09:12:02.395Z,11.52
2023-05-15T09:14:29.149Z,11.64
2023-05-15T09:16:55.890Z,11.59
2023-05-15T09:19:22.988Z,11.64
2023-05-15T09:21:49.940Z,11.64
2023-05-15T09:24:20.136Z,11.65
2023-05-15T09:26:48.026Z,11.65
2023-05-15T09:29:18.749Z,11.65
2023-05-15T09:31:47.169Z,11.61
2023-05-15T09:34:14.505Z,11.64
2023-05-15T09:36:43.922Z,11.52
2023-05-15T09:39:10.662Z,10.28
2023-05-15T09:41:42.825Z,10.25
2023-05-15T09:44:21.248Z,10.12
2023-05-15T09:46:48.833Z,10.86
2023-05-15T09:49:15.683Z,11.34
2023-05-15T09:51:43.581Z,11.46
2023-05-15T09:54:16.105Z,11.50
2023-05-15T09:56:44.843Z,11.51
2023-05-15T09:59:14.786Z,11.52
2023-05-15T10:01:43.978Z,11.39
2023-05-15T10:04:11.226Z,10.80
2023-05-15T10:06:41.211Z,10.76
2023-05-15T10:09:14.168Z,10.59
2023-05-15T10:11:45.270Z,10.96
2023-05-15T10:14:14.199Z,11.02
2023-05-15T10:16:41.704Z,11.44
2023-05-15T10:19:10.861Z,11.47
2023-05-15T10:21:39.444Z,11.40
2023-05-15T10:24:07.924Z,11.56
2023-05-15T10:26:39.479Z,11.36
2023-05-15T10:29:08.580Z,11.36
2023-05-15T10:31:37.243Z,11.03
2023-05-15T10:34:04.711Z,11.14
2023-05-15T10:36:31.662Z,11.42
2023-05-15T10:38:59.581Z,11.57
2023-05-15T10:41:28.636Z,11.50
2023-05-15T10:43:58.000Z,11.63
2023-05-15T10:46:25.701Z,11.64
2023-05-15T10:48:54.101Z,12.17
2023-05-15T10:51:25.617Z,11.67
2023-05-15T10:53:52.695Z,11.79
2023-05-15T10:56:19.585Z,11.91
2023-05-15T10:58:47.892Z,11.53
2023-05-15T11:01:28.678Z,11.63
2023-05-15T11:04:11.439Z,11.61
2023-05-15T11:06:39.897Z,11.94
2023-05-15T11:09:35.267Z,11.92
2023-05-15T11:12:03.173Z,12.35
2023-05-15T11:14:30.780Z,12.15
2023-05-15T11:17:03.946Z,12.16
2023-05-15T11:19:37.183Z,12.02
2023-05-15T11:22:17.679Z,12.17
2023-05-15T11:24:50.887Z,12.44
2023-05-15T11:27:19.332Z,13.13
2023-05-15T11:30:22.416Z,13.94
2023-05-15T11:32:55.515Z,13.23
2023-05-15T11:35:30.608Z,13.44
2023-05-15T11:37:59.095Z,14.29
2023-05-15T11:40:27.316Z,12.92
2023-05-15T11:43:17.780Z,12.70
2023-05-15T11:45:47.155Z,12.70
2023-05-15T11:48:17.123Z,12.97
2023-05-15T11:50:45.743Z,12.56
2023-05-15T11:53:13.308Z,12.53
2023-05-15T11:55:41.647Z,12.47
2023-05-15T11:58:13.517Z,12.29
2023-05-15T12:00:40.719Z,12.28
2023-05-15T12:03:14.404Z,12.14
2023-05-15T12:05:53.644Z,12.13
2023-05-15T12:08:30.846Z,12.32
2023-05-15T12:10:59.166Z,12.23
2023-05-15T12:13:25.801Z,12.26
2023-05-15T12:15:54.022Z,12.25
2023-05-15T12:18:20.714Z,11.89
2023-05-15T12:20:47.381Z,12.04
2023-05-15T12:23:16.544Z,11.82
2023-05-15T12:25:47.082Z,12.25
2023-05-15T12:28:14.501Z,12.15
2023-05-15T12:30:42.864Z,12.09
2023-05-15T12:33:10.849Z,12.42
2023-05-15T12:35:42.142Z,12.48
2023-05-15T12:38:09.314Z,12.28
2023-05-15T12:40:37.115Z,12.38
2023-05-15T12:43:07.827Z,12.45
2023-05-15T12:45:37.302Z,12.29
2023-05-15T12:48:04.520Z,12.46
2023-05-15T12:50:33.217Z,12.48
2023-05-15T12:53:03.139Z,12.31
2023-05-15T12:55:32.413Z,12.53
2023-05-15T12:58:02.071Z,12.32
2023-05-15T13:00:30.499Z,13.11
2023-05-15T13:02:57.840Z,13.05
2023-05-15T13:05:24.841Z,13.62
2023-05-15T13:07:55.268Z,13.25
2023-05-15T13:10:23.536Z,13.23
2023-05-15T13:12:52.060Z,13.48
2023-05-15T13:15:25.970Z,13.73
2023-05-15T13:17:56.535Z,14.06
2023-05-15T13:20:24.122Z,14.11
2023-05-15T13:22:51.314Z,14.17
2023-05-15T13:25:19.258Z,14.16
2023-05-15T13:27:46.015Z,13.78
2023-05-15T13:30:13.540Z,13.21
2023-05-15T13:32:40.149Z,13.07
2023-05-15T13:35:09.940Z,13.22
2023-05-15T13:37:37.157Z,12.76
2023-05-15T13:40:06.802Z,12.72
2023-05-15T13:42:33.294Z,12.69
2023-05-15T13:44:59.892Z,12.67
2023-05-15T13:47:26.943Z,12.64
2023-05-15T13:49:53.535Z,12.66
2023-05-15T13:52:21.581Z,12.58
2023-05-15T13:54:48.253Z,12.61
2023-05-15T13:57:14.800Z,12.67
2023-05-15T13:59:41.351Z,12.66
2023-05-15T14:02:07.889Z,12.67
2023-05-15T14:04:34.457Z,12.69
2023-05-15T14:07:01.062Z,12.73
2023-05-15T14:09:29.022Z,12.68
2023-05-15T14:11:55.834Z,12.68
2023-05-15T14:14:22.409Z,12.66
2023-05-15T14:16:49.172Z,12.02
2023-05-15T14:19:16.070Z,12.54
2023-05-15T14:21:42.642Z,12.57
2023-05-15T14:24:09.207Z,11.97
2023-05-15T14:26:37.404Z,11.89
2023-05-15T14:29:04.446Z,12.06
2023-05-15T14:31:31.006Z,12.49
2023-05-15T14:33:57.548Z,11.88
2023-05-15T14:36:24.150Z,12.11
2023-05-15T14:38:50.690Z,12.01
2023-05-15T14:41:17.362Z,12.02
2023-05-15T14:43:45.246Z,12.47
2023-05-15T14:46:11.872Z,12.55
2023-05-15T14:48:38.446Z,12.62
2023-05-15T14:51:05.521Z,12.30
2023-05-15T14:53:32.194Z,12.61
2023-05-15T14:55:58.845Z,12.64
2023-05-15T14:58:25.903Z,12.65
2023-05-15T15:00:53.774Z,12.38
2023-05-15T15:03:21.903Z,12.49
2023-05-15T15:05:48.695Z,12.47
2023-05-15T15:08:15.755Z,12.57
2023-05-15T15:10:43.610Z,12.43
2023-05-15T15:13:12.049Z,12.34
2023-05-15T15:15:38.587Z,12.57
2023-05-15T15:18:07.839Z,12.67
2023-05-15T15:20:34.719Z,12.69
2023-05-15T15:23:03.994Z,12.69
2023-05-15T15:25:32.738Z,12.92
2023-05-15T15:27:59.526Z,13.10
2023-05-15T15:30:26.242Z,13.22
2023-05-15T15:32:54.663Z,13.19
2023-05-15T15:35:23.304Z,13.08
2023-05-15T15:37:49.990Z,13.27
2023-05-15T15:40:17.901Z,13.21
2023-05-15T15:42:44.477Z,13.25
2023-05-15T15:45:11.339Z,13.32
2023-05-15T15:47:38.030Z,13.39
2023-05-15T15:50:05.597Z,13.19
2023-05-15T15:52:33.597Z,13.32
2023-05-15T15:55:00.274Z,13.37
2023-05-15T15:57:28.055Z,13.24
2023-05-15T15:59:54.690Z,13.09
2023-05-15T16:02:21.444Z,12.74
2023-05-15T16:04:48.096Z,12.54
2023-05-15T16:07:14.688Z,12.21
2023-05-15T16:09:42.741Z,12.33
2023-05-15T16:12:09.401Z,12.56
2023-05-15T16:14:36.097Z,12.67
2023-05-15T16:17:06.164Z,12.69
2023-05-15T16:19:32.847Z,12.74
2023-05-15T16:21:59.440Z,12.63
2023-05-15T16:24:26.394Z,12.70
2023-05-15T16:26:55.176Z,12.66
2023-05-15T16:29:21.959Z,11.78
2023-05-15T16:31:48.652Z,11.62
2023-05-15T16:34:15.387Z,11.18
2023-05-15T16:36:42.176Z,11.63
2023-05-15T16:39:08.760Z,11.38
2023-05-15T16:41:35.387Z,11.51
2023-05-15T16:44:03.519Z,11.41
2023-05-15T16:46:30.266Z,11.56
2023-05-15T16:48:57.027Z,11.75
2023-05-15T16:51:23.679Z,11.79
2023-05-15T16:53:50.366Z,12.04
2023-05-15T16:56:16.986Z,11.77
2023-05-15T16:58:43.593Z,12.33
2023-05-15T17:01:11.539Z,12.32
2023-05-15T17:03:38.178Z,11.71
2023-05-15T17:06:05.072Z,12.44
2023-05-15T17:08:32.319Z,12.43
2023-05-15T17:10:59.044Z,12.60
2023-05-15T17:13:27.129Z,12.63
2023-05-15T17:15:54.408Z,12.63
2023-05-15T17:18:22.491Z,12.65
2023-05-15T17:20:49.081Z,12.61
2023-05-15T17:23:16.012Z,12.62
2023-05-15T17:25:42.626Z,12.62
2023-05-15T17:28:09.313Z,12.61
2023-05-15T17:30:36.354Z,12.63
2023-05-15T17:33:03.195Z,12.66
2023-05-15T17:35:32.984Z,12.68
2023-05-15T17:37:59.968Z,12.68
2023-05-15T17:40:26.549Z,12.70
2023-05-15T17:42:53.141Z,12.73
2023-05-15T17:45:19.736Z,12.72
2023-05-15T17:47:46.335Z,12.73
2023-05-15T17:50:12.967Z,12.75
2023-05-15T17:52:40.962Z,12.75
2023-05-15T17:55:08.530Z,12.74
2023-05-15T17:57:35.216Z,12.76
2023-05-15T18:00:01.922Z,12.76
2023-05-15T18:02:28.578Z,12.74
2023-05-15T18:04:56.134Z,12.71
2023-05-15T18:07:22.717Z,12.58
2023-05-15T18:09:50.654Z,11.59
2023-05-15T18:12:17.218Z,12.52
2023-05-15T18:14:44.467Z,12.67
2023-05-15T18:17:11.710Z,12.74
2023-05-15T18:19:39.642Z,12.75
2023-05-15T18:22:06.291Z,12.43
2023-05-15T18:24:32.920Z,12.20
2023-05-15T18:27:01.221Z,12.69
2023-05-15T18:29:27.788Z,12.75
2023-05-15T18:31:54.462Z,12.77
2023-05-15T18:34:21.165Z,12.76
2023-05-15T18:36:51.800Z,12.17
2023-05-15T18:39:18.533Z,12.62
2023-05-15T18:41:45.129Z,12.70
2023-05-15T18:44:13.086Z,12.73
2023-05-15T18:46:39.726Z,12.73
2023-05-15T18:49:06.315Z,12.74
2023-05-15T18:51:32.978Z,12.75
2023-05-15T18:53:59.561Z,12.77
2023-05-15T18:56:26.162Z,12.74
2023-05-15T18:58:53.882Z,11.07
2023-05-15T19:01:22.106Z,10.48
2023-05-15T19:03:48.942Z,11.92
2023-05-15T19:06:19.836Z,11.81
2023-05-15T19:08:47.198Z,12.25
2023-05-15T19:11:14.183Z,12.55
2023-05-15T19:13:40.989Z,12.62
2023-05-15T19:16:09.693Z,12.61
2023-05-15T19:18:37.815Z,12.64
2023-05-15T19:21:04.906Z,12.63
2023-05-15T19:23:31.669Z,12.62
2023-05-15T19:25:58.250Z,12.62
2023-05-15T19:28:24.815Z,12.62
2023-05-15T19:30:51.431Z,12.64
2023-05-15T19:33:18.078Z,12.65
2023-05-15T19:35:46.067Z,12.62
2023-05-15T19:38:12.709Z,12.14
2023-05-15T19:40:42.789Z,11.94
2023-05-15T19:43:11.304Z,12.50
2023-05-15T19:45:39.701Z,12.58
2023-05-15T19:48:06.550Z,12.59
2023-05-15T19:50:33.369Z,12.60
2023-05-15T19:53:01.548Z,12.60
2023-05-15T19:55:28.272Z,12.60
2023-05-15T19:57:56.105Z,12.60
2023-05-15T20:00:23.129Z,12.64
2023-05-15T20:02:49.816Z,12.59
2023-05-15T20:05:16.711Z,12.59
2023-05-15T20:07:43.569Z,12.58
2023-05-15T20:10:11.884Z,12.58
2023-05-15T20:12:38.678Z,12.63
2023-05-15T20:15:06.889Z,12.58
2023-05-15T20:17:33.588Z,12.59
2023-05-15T20:20:01.033Z,12.65
2023-05-15T20:22:27.726Z,12.60
2023-05-15T20:24:54.416Z,12.59
2023-05-15T20:27:22.590Z,12.59
2023-05-15T20:29:49.161Z,12.60
2023-05-15T20:32:15.969Z,12.54
2023-05-15T20:34:45.670Z,12.57
2023-05-15T20:37:13.263Z,12.59
2023-05-15T20:39:39.833Z,12.55
2023-05-15T20:42:07.014Z,12.59
2023-05-15T20:44:36.631Z,12.55
2023-05-15T20:47:06.131Z,12.55
2023-05-15T20:49:32.720Z,12.58
2023-05-15T20:52:00.445Z,12.56
2023-05-15T20:54:27.129Z,12.59
2023-05-15T20:56:53.891Z,12.51
2023-05-15T20:59:20.841Z,12.56
2023-05-15T21:01:48.816Z,12.55
2023-05-15T21:04:16.142Z,12.51
2023-05-15T21:06:42.852Z,12.49
2023-05-15T21:09:09.500Z,12.32
2023-05-15T21:11:36.056Z,12.47
2023-05-15T21:14:02.725Z,11.30
2023-05-15T21:16:29.381Z,11.00
2023-05-15T21:18:57.429Z,11.84
2023-05-15T21:21:24.088Z,10.67
2023-05-15T21:23:50.663Z,11.48
2023-05-15T21:26:17.211Z,12.17
2023-05-15T21:28:43.812Z,12.32
2023-05-15T21:31:11.193Z,12.40
2023-05-15T21:33:38.059Z,12.37
2023-05-15T21:36:06.506Z,12.41
2023-05-15T21:38:33.097Z,12.40
2023-05-15T21:41:00.915Z,12.40
2023-05-15T21:43:27.496Z,12.36
2023-05-15T21:45:55.879Z,12.38
2023-05-15T21:48:22.496Z,12.44
2023-05-15T21:50:49.068Z,12.40
2023-05-15T21:53:17.351Z,12.40
2023-05-15T21:55:44.301Z,12.40
2023-05-15T21:58:10.863Z,11.57
2023-05-15T22:00:39.702Z,11.60
2023-05-15T22:03:06.400Z,12.20
2023-05-15T22:05:33.012Z,12.18
2023-05-15T22:07:59.559Z,12.31
2023-05-15T22:10:27.730Z,12.34
2023-05-15T22:12:54.499Z,11.76
2023-05-15T22:15:21.066Z,10.87
2023-05-15T22:17:47.984Z,11.90
2023-05-15T22:20:14.811Z,11.70
2023-05-15T22:22:41.972Z,12.18
2023-05-15T22:25:09.244Z,12.29
2023-05-15T22:27:37.532Z,12.27
2023-05-15T22:30:04.952Z,12.28
2023-05-15T22:32:31.578Z,12.26
2023-05-15T22:34:58.678Z,12.27
2023-05-15T22:37:25.417Z,12.35
2023-05-15T22:39:52.519Z,12.33
2023-05-15T22:42:19.283Z,12.33
2023-05-15T22:44:47.569Z,12.33
2023-05-15T22:47:14.325Z,12.11
2023-05-15T22:49:40.937Z,12.26
2023-05-15T22:52:07.562Z,12.23
2023-05-15T22:54:34.155Z,12.27
2023-05-15T22:57:00.960Z,12.33
2023-05-15T22:59:27.596Z,12.27
2023-05-15T23:01:55.738Z,12.01
2023-05-15T23:04:22.533Z,10.97
2023-05-15T23:06:49.248Z,11.84
2023-05-15T23:09:16.120Z,12.14
2023-05-15T23:11:43.004Z,12.22
2023-05-15T23:14:09.665Z,12.21
2023-05-15T23:16:36.451Z,12.20
2023-05-15T23:19:04.505Z,12.19
2023-05-15T23:21:31.267Z,12.22
2023-05-15T23:23:57.872Z,12.26
2023-05-15T23:26:24.479Z,12.27
2023-05-15T23:28:51.345Z,12.22
2023-05-15T23:31:18.176Z,12.30
2023-05-15T23:33:44.831Z,12.33
2023-05-15T23:36:12.731Z,11.21
2023-05-15T23:38:39.844Z,11.87
2023-05-15T23:41:06.463Z,12.13
2023-05-15T23:43:32.991Z,12.15
2023-05-15T23:45:59.583Z,12.15
2023-05-15T23:48:26.181Z,12.15
2023-05-15T23:50:52.970Z,12.18
2023-05-15T23:53:20.838Z,12.10
2023-05-15T23:55:47.530Z,12.16
2023-05-15T23:58:14.092Z,12.16
